Weather at Porto Alto Airstrip [CLOSED]

Public forecast

Using degrees Celsius for public forecast. Weather courtesy of forecast.io.

Closest aviation weather report (METAR) to Porto Alto Airstrip

Closest report is Alverca Air Base, 8.7 nm (16.1 km) WSW.

2024/06/17 09:00 (retrieved 1 hour ago)

LPAR 170900Z 19009KT 9999 FEW025 21/15 Q1013

Closest aviation forecast (TAF) to Porto Alto Airstrip

Closest forecast is Humberto Delgado Airport (Lisbon Portela Airport), 16.2 nm (30.1 km) SW.

2024/06/17 06:18 (retrieved 4 hours ago)

TAF LPPT 170500Z 1706/1812 26005KT 9999 SCT012 PROB30 TEMPO 1706/1708 BKN006 BECMG 1708/1710 23010KT BKN025 BECMG 1718/1720 SCT006 BKN012 TEMPO 1720/1802 5000 -RADZ BR SCT003 BKN006 BECMG 1808/1810 SCT020